sensor_id;sensor_type;location;lat;lon;timestamp;P1;durP1;ratioP1;P2;durP2;ratioP2
28028;SDS011;15345;59.364;18.016;2024-02-28T00:00:24;6.85;;;6.15;;
28028;SDS011;15345;59.364;18.016;2024-02-28T00:01:50;7.05;;;6.35;;
28028;SDS011;15345;59.364;18.016;2024-02-28T00:03:09;7.32;;;6.30;;
28028;SDS011;15345;59.364;18.016;2024-02-28T00:04:28;6.07;;;5.57;;
28028;SDS011;15345;59.364;18.016;2024-02-28T00:05:48;6.68;;;5.90;;
28028;SDS011;15345;59.364;18.016;2024-02-28T00:07:07;6.45;;;5.85;;
28028;SDS011;15345;59.364;18.016;2024-02-28T00:08:26;5.60;;;4.80;;
28028;SDS011;15345;59.364;18.016;2024-02-28T00:09:45;6.60;;;6.10;;
28028;SDS011;15345;59.364;18.016;2024-02-28T00:11:04;5.55;;;5.05;;
28028;SDS011;15345;59.364;18.016;2024-02-28T00:12:23;5.90;;;5.40;;
28028;SDS011;15345;59.364;18.016;2024-02-28T00:13:44;6.00;;;5.50;;
28028;SDS011;15345;59.364;18.016;2024-02-28T00:15:04;5.78;;;5.32;;
28028;SDS011;15345;59.364;18.016;2024-02-28T00:16:24;5.88;;;5.38;;
28028;SDS011;15345;59.364;18.016;2024-02-28T00:17:43;5.55;;;5.05;;
28028;SDS011;15345;59.364;18.016;2024-02-28T00:19:02;5.72;;;5.22;;
28028;SDS011;15345;59.364;18.016;2024-02-28T00:20:21;5.95;;;5.35;;
28028;SDS011;15345;59.364;18.016;2024-02-28T00:21:40;6.00;;;5.38;;
28028;SDS011;15345;59.364;18.016;2024-02-28T00:22:59;5.70;;;5.30;;
28028;SDS011;15345;59.364;18.016;2024-02-28T00:24:18;4.65;;;4.35;;
28028;SDS011;15345;59.364;18.016;2024-02-28T00:25:37;5.43;;;5.00;;
28028;SDS011;15345;59.364;18.016;2024-02-28T00:26:56;5.88;;;5.10;;
28028;SDS011;15345;59.364;18.016;2024-02-28T00:28:15;5.47;;;5.07;;
28028;SDS011;15345;59.364;18.016;2024-02-28T00:29:34;5.85;;;5.35;;
28028;SDS011;15345;59.364;18.016;2024-02-28T00:30:53;5.47;;;4.97;;
28028;SDS011;15345;59.364;18.016;2024-02-28T00:32:12;5.25;;;4.78;;
28028;SDS011;15345;59.364;18.016;2024-02-28T00:33:31;5.22;;;4.72;;
28028;SDS011;15345;59.364;18.016;2024-02-28T00:34:50;5.63;;;4.50;;
28028;SDS011;15345;59.364;18.016;2024-02-28T00:36:08;5.05;;;4.65;;
28028;SDS011;15345;59.364;18.016;2024-02-28T00:37:28;5.40;;;4.90;;
28028;SDS011;15345;59.364;18.016;2024-02-28T00:38:47;5.40;;;4.50;;
28028;SDS011;15345;59.364;18.016;2024-02-28T00:40:07;5.13;;;4.68;;
28028;SDS011;15345;59.364;18.016;2024-02-28T00:41:26;4.55;;;4.25;;
28028;SDS011;15345;59.364;18.016;2024-02-28T00:42:45;4.38;;;4.07;;
28028;SDS011;15345;59.364;18.016;2024-02-28T00:44:04;5.15;;;4.75;;
28028;SDS011;15345;59.364;18.016;2024-02-28T00:45:23;5.15;;;4.68;;
28028;SDS011;15345;59.364;18.016;2024-02-28T00:46:42;5.18;;;4.78;;
28028;SDS011;15345;59.364;18.016;2024-02-28T00:48:01;4.88;;;4.47;;
28028;SDS011;15345;59.364;18.016;2024-02-28T00:49:20;4.75;;;4.40;;
28028;SDS011;15345;59.364;18.016;2024-02-28T00:50:39;5.18;;;4.68;;
28028;SDS011;15345;59.364;18.016;2024-02-28T00:51:58;4.45;;;4.15;;
28028;SDS011;15345;59.364;18.016;2024-02-28T00:53:17;5.00;;;4.60;;
28028;SDS011;15345;59.364;18.016;2024-02-28T00:54:36;6.10;;;4.78;;
28028;SDS011;15345;59.364;18.016;2024-02-28T00:55:55;5.43;;;4.40;;
28028;SDS011;15345;59.364;18.016;2024-02-28T00:57:14;4.78;;;4.43;;
28028;SDS011;15345;59.364;18.016;2024-02-28T00:58:33;5.20;;;4.80;;
28028;SDS011;15345;59.364;18.016;2024-02-28T00:59:52;4.57;;;4.22;;
28028;SDS011;15345;59.364;18.016;2024-02-28T01:01:13;5.47;;;4.97;;
28028;SDS011;15345;59.364;18.016;2024-02-28T01:02:32;4.78;;;4.38;;
28028;SDS011;15345;59.364;18.016;2024-02-28T01:03:51;4.65;;;4.10;;
28028;SDS011;15345;59.364;18.016;2024-02-28T01:05:09;5.28;;;4.60;;
28028;SDS011;15345;59.364;18.016;2024-02-28T01:06:28;4.45;;;4.15;;
28028;SDS011;15345;59.364;18.016;2024-02-28T01:07:48;5.32;;;4.78;;
28028;SDS011;15345;59.364;18.016;2024-02-28T01:09:07;4.70;;;4.30;;
28028;SDS011;15345;59.364;18.016;2024-02-28T01:10:26;4.70;;;4.40;;
28028;SDS011;15345;59.364;18.016;2024-02-28T01:11:44;4.80;;;4.30;;
28028;SDS011;15345;59.364;18.016;2024-02-28T01:13:04;5.45;;;4.20;;
28028;SDS011;15345;59.364;18.016;2024-02-28T01:14:22;5.18;;;4.68;;
28028;SDS011;15345;59.364;18.016;2024-02-28T01:15:42;4.47;;;4.15;;
28028;SDS011;15345;59.364;18.016;2024-02-28T01:17:01;4.53;;;4.13;;
28028;SDS011;15345;59.364;18.016;2024-02-28T01:18:19;4.75;;;4.35;;
28028;SDS011;15345;59.364;18.016;2024-02-28T01:19:38;5.00;;;4.60;;
28028;SDS011;15345;59.364;18.016;2024-02-28T01:20:57;4.55;;;4.18;;
28028;SDS011;15345;59.364;18.016;2024-02-28T01:22:16;4.20;;;3.80;;
28028;SDS011;15345;59.364;18.016;2024-02-28T01:23:35;4.38;;;4.07;;
28028;SDS011;15345;59.364;18.016;2024-02-28T01:24:54;4.95;;;4.55;;
28028;SDS011;15345;59.364;18.016;2024-02-28T01:26:13;6.10;;;4.53;;
28028;SDS011;15345;59.364;18.016;2024-02-28T01:27:32;5.10;;;4.70;;
28028;SDS011;15345;59.364;18.016;2024-02-28T01:28:51;4.43;;;3.95;;
28028;SDS011;15345;59.364;18.016;2024-02-28T01:30:10;4.63;;;4.28;;
28028;SDS011;15345;59.364;18.016;2024-02-28T01:31:29;5.57;;;5.07;;
28028;SDS011;15345;59.364;18.016;2024-02-28T01:32:48;4.72;;;4.32;;
28028;SDS011;15345;59.364;18.016;2024-02-28T01:34:07;4.43;;;4.10;;
28028;SDS011;15345;59.364;18.016;2024-02-28T01:35:26;4.00;;;3.70;;
28028;SDS011;15345;59.364;18.016;2024-02-28T01:36:45;8.18;;;3.72;;
28028;SDS011;15345;59.364;18.016;2024-02-28T01:38:04;4.32;;;4.03;;
28028;SDS011;15345;59.364;18.016;2024-02-28T01:39:23;4.13;;;3.78;;
28028;SDS011;15345;59.364;18.016;2024-02-28T01:40:45;6.47;;;4.03;;
28028;SDS011;15345;59.364;18.016;2024-02-28T01:42:05;5.65;;;4.35;;
28028;SDS011;15345;59.364;18.016;2024-02-28T01:43:24;4.07;;;3.75;;
28028;SDS011;15345;59.364;18.016;2024-02-28T01:44:44;4.05;;;3.75;;
28028;SDS011;15345;59.364;18.016;2024-02-28T01:46:04;3.97;;;3.67;;
28028;SDS011;15345;59.364;18.016;2024-02-28T01:47:24;3.70;;;3.40;;
28028;SDS011;15345;59.364;18.016;2024-02-28T01:48:42;3.85;;;3.55;;
28028;SDS011;15345;59.364;18.016;2024-02-28T01:50:02;3.63;;;3.33;;
28028;SDS011;15345;59.364;18.016;2024-02-28T01:51:25;3.72;;;3.42;;
28028;SDS011;15345;59.364;18.016;2024-02-28T01:52:46;3.63;;;3.38;;
28028;SDS011;15345;59.364;18.016;2024-02-28T01:54:04;3.80;;;3.40;;
28028;SDS011;15345;59.364;18.016;2024-02-28T01:55:25;3.45;;;3.25;;
28028;SDS011;15345;59.364;18.016;2024-02-28T01:56:44;3.78;;;3.47;;
28028;SDS011;15345;59.364;18.016;2024-02-28T01:58:03;3.60;;;3.38;;
28028;SDS011;15345;59.364;18.016;2024-02-28T01:59:24;3.40;;;3.20;;
28028;SDS011;15345;59.364;18.016;2024-02-28T02:00:45;3.88;;;3.47;;
28028;SDS011;15345;59.364;18.016;2024-02-28T02:02:04;4.15;;;3.75;;
28028;SDS011;15345;59.364;18.016;2024-02-28T02:03:24;4.40;;;4.10;;
28028;SDS011;15345;59.364;18.016;2024-02-28T02:04:43;4.97;;;4.07;;
28028;SDS011;15345;59.364;18.016;2024-02-28T02:06:02;5.22;;;4.82;;
28028;SDS011;15345;59.364;18.016;2024-02-28T02:07:21;5.30;;;4.80;;
28028;SDS011;15345;59.364;18.016;2024-02-28T02:08:40;5.55;;;5.15;;
28028;SDS011;15345;59.364;18.016;2024-02-28T02:09:59;5.35;;;4.93;;
28028;SDS011;15345;59.364;18.016;2024-02-28T02:11:19;5.05;;;4.65;;
28028;SDS011;15345;59.364;18.016;2024-02-28T02:12:38;5.35;;;4.85;;
28028;SDS011;15345;59.364;18.016;2024-02-28T02:13:57;5.13;;;4.72;;
28028;SDS011;15345;59.364;18.016;2024-02-28T02:15:16;5.55;;;5.05;;
28028;SDS011;15345;59.364;18.016;2024-02-28T02:16:35;6.28;;;5.68;;
28028;SDS011;15345;59.364;18.016;2024-02-28T02:17:53;5.07;;;4.45;;
28028;SDS011;15345;59.364;18.016;2024-02-28T02:19:12;6.15;;;4.95;;
28028;SDS011;15345;59.364;18.016;2024-02-28T02:20:32;5.50;;;5.00;;
28028;SDS011;15345;59.364;18.016;2024-02-28T02:21:52;5.00;;;4.47;;
28028;SDS011;15345;59.364;18.016;2024-02-28T02:23:12;5.05;;;4.60;;
28028;SDS011;15345;59.364;18.016;2024-02-28T02:24:32;4.68;;;4.28;;
28028;SDS011;15345;59.364;18.016;2024-02-28T02:25:51;5.03;;;4.15;;
28028;SDS011;15345;59.364;18.016;2024-02-28T02:27:10;5.18;;;4.68;;
28028;SDS011;15345;59.364;18.016;2024-02-28T02:28:29;6.68;;;5.13;;
28028;SDS011;15345;59.364;18.016;2024-02-28T02:29:48;8.50;;;4.88;;
28028;SDS011;15345;59.364;18.016;2024-02-28T02:31:08;5.60;;;5.13;;
28028;SDS011;15345;59.364;18.016;2024-02-28T02:32:27;5.15;;;4.65;;
28028;SDS011;15345;59.364;18.016;2024-02-28T02:33:47;5.40;;;4.90;;
28028;SDS011;15345;59.364;18.016;2024-02-28T02:35:06;5.20;;;4.07;;
28028;SDS011;15345;59.364;18.016;2024-02-28T02:36:25;4.35;;;4.00;;
28028;SDS011;15345;59.364;18.016;2024-02-28T02:37:44;4.63;;;4.22;;
28028;SDS011;15345;59.364;18.016;2024-02-28T02:39:04;4.55;;;4.15;;
28028;SDS011;15345;59.364;18.016;2024-02-28T02:40:23;4.28;;;3.92;;
28028;SDS011;15345;59.364;18.016;2024-02-28T02:41:42;4.78;;;4.38;;
28028;SDS011;15345;59.364;18.016;2024-02-28T02:43:01;4.70;;;4.15;;
28028;SDS011;15345;59.364;18.016;2024-02-28T02:44:20;4.07;;;3.75;;
28028;SDS011;15345;59.364;18.016;2024-02-28T02:45:39;5.00;;;4.00;;
28028;SDS011;15345;59.364;18.016;2024-02-28T02:46:58;5.35;;;4.18;;
28028;SDS011;15345;59.364;18.016;2024-02-28T02:48:17;4.22;;;3.92;;
28028;SDS011;15345;59.364;18.016;2024-02-28T02:49:36;4.53;;;4.15;;
28028;SDS011;15345;59.364;18.016;2024-02-28T02:50:55;4.85;;;4.32;;
28028;SDS011;15345;59.364;18.016;2024-02-28T02:52:14;4.35;;;4.05;;
28028;SDS011;15345;59.364;18.016;2024-02-28T02:53:33;4.03;;;3.72;;
28028;SDS011;15345;59.364;18.016;2024-02-28T02:54:52;4.25;;;3.95;;
28028;SDS011;15345;59.364;18.016;2024-02-28T02:56:11;4.57;;;4.18;;
28028;SDS011;15345;59.364;18.016;2024-02-28T02:57:30;4.45;;;4.15;;
28028;SDS011;15345;59.364;18.016;2024-02-28T02:58:49;4.60;;;4.28;;
28028;SDS011;15345;59.364;18.016;2024-02-28T03:00:09;4.88;;;4.57;;
28028;SDS011;15345;59.364;18.016;2024-02-28T03:01:28;6.78;;;4.82;;
28028;SDS011;15345;59.364;18.016;2024-02-28T03:02:47;4.32;;;4.03;;
28028;SDS011;15345;59.364;18.016;2024-02-28T03:04:06;4.28;;;3.95;;
28028;SDS011;15345;59.364;18.016;2024-02-28T03:05:25;4.22;;;3.90;;
28028;SDS011;15345;59.364;18.016;2024-02-28T03:06:44;4.03;;;3.75;;
28028;SDS011;15345;59.364;18.016;2024-02-28T03:08:03;4.55;;;4.15;;
28028;SDS011;15345;59.364;18.016;2024-02-28T03:09:22;4.15;;;3.85;;
28028;SDS011;15345;59.364;18.016;2024-02-28T03:10:40;4.75;;;4.35;;
28028;SDS011;15345;59.364;18.016;2024-02-28T03:11:59;4.20;;;3.80;;
28028;SDS011;15345;59.364;18.016;2024-02-28T03:13:18;4.65;;;4.28;;
28028;SDS011;15345;59.364;18.016;2024-02-28T03:14:37;4.43;;;4.10;;
28028;SDS011;15345;59.364;18.016;2024-02-28T03:15:56;3.80;;;3.50;;
28028;SDS011;15345;59.364;18.016;2024-02-28T03:17:15;4.47;;;4.10;;
28028;SDS011;15345;59.364;18.016;2024-02-28T03:18:34;4.07;;;3.78;;
28028;SDS011;15345;59.364;18.016;2024-02-28T03:19:53;4.13;;;3.83;;
28028;SDS011;15345;59.364;18.016;2024-02-28T03:21:12;4.20;;;3.90;;
28028;SDS011;15345;59.364;18.016;2024-02-28T03:22:31;4.20;;;3.90;;
28028;SDS011;15345;59.364;18.016;2024-02-28T03:23:50;4.75;;;4.20;;
28028;SDS011;15345;59.364;18.016;2024-02-28T03:25:09;3.92;;;3.63;;
28028;SDS011;15345;59.364;18.016;2024-02-28T03:26:28;4.00;;;3.60;;
28028;SDS011;15345;59.364;18.016;2024-02-28T03:27:47;4.20;;;3.85;;
28028;SDS011;15345;59.364;18.016;2024-02-28T03:29:06;4.93;;;3.55;;
28028;SDS011;15345;59.364;18.016;2024-02-28T03:30:25;3.40;;;3.17;;
28028;SDS011;15345;59.364;18.016;2024-02-28T03:31:44;4.43;;;4.03;;
28028;SDS011;15345;59.364;18.016;2024-02-28T03:33:03;3.90;;;3.55;;
28028;SDS011;15345;59.364;18.016;2024-02-28T03:34:22;3.83;;;3.53;;
28028;SDS011;15345;59.364;18.016;2024-02-28T03:35:41;3.88;;;3.58;;
28028;SDS011;15345;59.364;18.016;2024-02-28T03:37:00;3.65;;;3.35;;
28028;SDS011;15345;59.364;18.016;2024-02-28T03:38:19;4.13;;;3.75;;
28028;SDS011;15345;59.364;18.016;2024-02-28T03:39:38;4.63;;;3.95;;
28028;SDS011;15345;59.364;18.016;2024-02-28T03:40:57;3.55;;;3.30;;
28028;SDS011;15345;59.364;18.016;2024-02-28T03:42:15;4.15;;;3.72;;
28028;SDS011;15345;59.364;18.016;2024-02-28T03:43:34;3.60;;;3.40;;
28028;SDS011;15345;59.364;18.016;2024-02-28T03:44:53;3.85;;;3.63;;
28028;SDS011;15345;59.364;18.016;2024-02-28T03:46:12;4.25;;;3.88;;
28028;SDS011;15345;59.364;18.016;2024-02-28T03:47:31;4.35;;;3.53;;
28028;SDS011;15345;59.364;18.016;2024-02-28T03:48:50;3.65;;;3.40;;
28028;SDS011;15345;59.364;18.016;2024-02-28T03:50:09;3.80;;;3.50;;
28028;SDS011;15345;59.364;18.016;2024-02-28T03:51:28;3.95;;;3.50;;
28028;SDS011;15345;59.364;18.016;2024-02-28T03:52:48;3.90;;;3.60;;
28028;SDS011;15345;59.364;18.016;2024-02-28T03:54:07;3.83;;;3.53;;
28028;SDS011;15345;59.364;18.016;2024-02-28T03:55:26;3.70;;;3.50;;
28028;SDS011;15345;59.364;18.016;2024-02-28T03:56:45;3.90;;;3.60;;
28028;SDS011;15345;59.364;18.016;2024-02-28T03:58:05;4.30;;;3.90;;
28028;SDS011;15345;59.364;18.016;2024-02-28T03:59:27;3.95;;;3.65;;
28028;SDS011;15345;59.364;18.016;2024-02-28T04:00:46;3.83;;;3.42;;
28028;SDS011;15345;59.364;18.016;2024-02-28T04:02:05;3.65;;;3.35;;
28028;SDS011;15345;59.364;18.016;2024-02-28T04:03:24;4.03;;;3.72;;
28028;SDS011;15345;59.364;18.016;2024-02-28T04:04:43;4.13;;;3.65;;
28028;SDS011;15345;59.364;18.016;2024-02-28T04:06:02;3.72;;;3.42;;
28028;SDS011;15345;59.364;18.016;2024-02-28T04:07:22;4.78;;;3.88;;
28028;SDS011;15345;59.364;18.016;2024-02-28T04:08:41;4.00;;;3.60;;
28028;SDS011;15345;59.364;18.016;2024-02-28T04:10:00;3.78;;;3.47;;
28028;SDS011;15345;59.364;18.016;2024-02-28T04:11:20;4.32;;;3.60;;
28028;SDS011;15345;59.364;18.016;2024-02-28T04:12:38;3.67;;;3.38;;
28028;SDS011;15345;59.364;18.016;2024-02-28T04:13:57;4.28;;;3.50;;
28028;SDS011;15345;59.364;18.016;2024-02-28T04:15:16;3.72;;;3.53;;
28028;SDS011;15345;59.364;18.016;2024-02-28T04:16:40;2.95;;;2.75;;
28028;SDS011;15345;59.364;18.016;2024-02-28T04:17:59;3.95;;;3.65;;
28028;SDS011;15345;59.364;18.016;2024-02-28T04:19:18;5.22;;;3.75;;
28028;SDS011;15345;59.364;18.016;2024-02-28T04:20:37;3.35;;;3.15;;
28028;SDS011;15345;59.364;18.016;2024-02-28T04:21:57;3.90;;;3.45;;
28028;SDS011;15345;59.364;18.016;2024-02-28T04:23:16;3.97;;;3.67;;
28028;SDS011;15345;59.364;18.016;2024-02-28T04:24:36;3.70;;;3.10;;
28028;SDS011;15345;59.364;18.016;2024-02-28T04:25:55;4.07;;;3.67;;
28028;SDS011;15345;59.364;18.016;2024-02-28T04:27:14;3.58;;;3.38;;
28028;SDS011;15345;59.364;18.016;2024-02-28T04:28:33;3.63;;;3.42;;
28028;SDS011;15345;59.364;18.016;2024-02-28T04:29:51;3.60;;;3.30;;
28028;SDS011;15345;59.364;18.016;2024-02-28T04:31:10;3.70;;;3.40;;
28028;SDS011;15345;59.364;18.016;2024-02-28T04:32:29;4.45;;;4.05;;
28028;SDS011;15345;59.364;18.016;2024-02-28T04:33:48;4.45;;;4.05;;
28028;SDS011;15345;59.364;18.016;2024-02-28T04:35:07;4.20;;;3.90;;
28028;SDS011;15345;59.364;18.016;2024-02-28T04:36:26;3.47;;;3.17;;
28028;SDS011;15345;59.364;18.016;2024-02-28T04:37:45;3.60;;;3.30;;
28028;SDS011;15345;59.364;18.016;2024-02-28T04:39:05;3.65;;;3.30;;
28028;SDS011;15345;59.364;18.016;2024-02-28T04:40:26;3.53;;;3.33;;
28028;SDS011;15345;59.364;18.016;2024-02-28T04:41:45;3.63;;;3.35;;
28028;SDS011;15345;59.364;18.016;2024-02-28T04:43:04;3.58;;;3.28;;
28028;SDS011;15345;59.364;18.016;2024-02-28T04:44:23;3.90;;;3.60;;
28028;SDS011;15345;59.364;18.016;2024-02-28T04:45:42;4.50;;;4.10;;
28028;SDS011;15345;59.364;18.016;2024-02-28T04:47:01;4.55;;;4.25;;
28028;SDS011;15345;59.364;18.016;2024-02-28T04:48:20;4.03;;;3.72;;
28028;SDS011;15345;59.364;18.016;2024-02-28T04:49:39;3.83;;;3.53;;
28028;SDS011;15345;59.364;18.016;2024-02-28T04:50:59;3.97;;;3.75;;
28028;SDS011;15345;59.364;18.016;2024-02-28T04:52:18;4.20;;;3.90;;
28028;SDS011;15345;59.364;18.016;2024-02-28T04:53:38;4.65;;;3.70;;
28028;SDS011;15345;59.364;18.016;2024-02-28T04:54:57;4.63;;;4.22;;
28028;SDS011;15345;59.364;18.016;2024-02-28T04:56:16;3.92;;;3.63;;
28028;SDS011;15345;59.364;18.016;2024-02-28T04:57:35;4.30;;;3.90;;
28028;SDS011;15345;59.364;18.016;2024-02-28T04:58:54;4.25;;;3.88;;
28028;SDS011;15345;59.364;18.016;2024-02-28T05:00:13;3.80;;;3.60;;
28028;SDS011;15345;59.364;18.016;2024-02-28T05:01:32;4.28;;;3.88;;
28028;SDS011;15345;59.364;18.016;2024-02-28T05:02:51;5.93;;;3.80;;
28028;SDS011;15345;59.364;18.016;2024-02-28T05:04:11;4.38;;;4.00;;
28028;SDS011;15345;59.364;18.016;2024-02-28T05:05:30;4.35;;;3.90;;
28028;SDS011;15345;59.364;18.016;2024-02-28T05:06:49;4.90;;;4.50;;
28028;SDS011;15345;59.364;18.016;2024-02-28T05:08:08;4.47;;;4.18;;
28028;SDS011;15345;59.364;18.016;2024-02-28T05:09:27;4.50;;;4.10;;
28028;SDS011;15345;59.364;18.016;2024-02-28T05:10:46;4.80;;;4.18;;
28028;SDS011;15345;59.364;18.016;2024-02-28T05:12:05;4.57;;;4.28;;
28028;SDS011;15345;59.364;18.016;2024-02-28T05:13:24;4.40;;;4.10;;
28028;SDS011;15345;59.364;18.016;2024-02-28T05:14:43;4.25;;;3.95;;
28028;SDS011;15345;59.364;18.016;2024-02-28T05:16:02;5.38;;;4.50;;
28028;SDS011;15345;59.364;18.016;2024-02-28T05:17:21;4.85;;;4.45;;
28028;SDS011;15345;59.364;18.016;2024-02-28T05:18:40;4.63;;;4.30;;
28028;SDS011;15345;59.364;18.016;2024-02-28T05:19:59;5.53;;;5.13;;
28028;SDS011;15345;59.364;18.016;2024-02-28T05:21:18;5.95;;;4.53;;
28028;SDS011;15345;59.364;18.016;2024-02-28T05:22:37;5.28;;;4.15;;
28028;SDS011;15345;59.364;18.016;2024-02-28T05:23:59;8.82;;;3.90;;
28028;SDS011;15345;59.364;18.016;2024-02-28T05:25:18;4.40;;;4.03;;
28028;SDS011;15345;59.364;18.016;2024-02-28T05:26:37;4.85;;;4.40;;
28028;SDS011;15345;59.364;18.016;2024-02-28T05:27:57;5.63;;;4.45;;
28028;SDS011;15345;59.364;18.016;2024-02-28T05:29:16;5.13;;;4.70;;
28028;SDS011;15345;59.364;18.016;2024-02-28T05:30:34;4.88;;;4.35;;
28028;SDS011;15345;59.364;18.016;2024-02-28T05:31:56;4.80;;;4.40;;
28028;SDS011;15345;59.364;18.016;2024-02-28T05:33:16;4.63;;;4.33;;
28028;SDS011;15345;59.364;18.016;2024-02-28T05:34:35;4.85;;;4.45;;
28028;SDS011;15345;59.364;18.016;2024-02-28T05:35:54;4.53;;;4.13;;
28028;SDS011;15345;59.364;18.016;2024-02-28T05:37:15;5.07;;;4.68;;
28028;SDS011;15345;59.364;18.016;2024-02-28T05:38:34;5.65;;;5.22;;
28028;SDS011;15345;59.364;18.016;2024-02-28T05:39:53;4.40;;;4.00;;
28028;SDS011;15345;59.364;18.016;2024-02-28T05:41:12;4.82;;;4.43;;
28028;SDS011;15345;59.364;18.016;2024-02-28T05:42:31;4.78;;;4.38;;
28028;SDS011;15345;59.364;18.016;2024-02-28T05:43:50;5.15;;;4.72;;
28028;SDS011;15345;59.364;18.016;2024-02-28T05:45:09;4.30;;;4.00;;
28028;SDS011;15345;59.364;18.016;2024-02-28T05:46:29;4.78;;;4.47;;
28028;SDS011;15345;59.364;18.016;2024-02-28T05:47:48;4.85;;;4.45;;
28028;SDS011;15345;59.364;18.016;2024-02-28T05:49:07;4.70;;;4.40;;
28028;SDS011;15345;59.364;18.016;2024-02-28T05:50:26;4.32;;;4.03;;
28028;SDS011;15345;59.364;18.016;2024-02-28T05:51:45;5.03;;;4.53;;
28028;SDS011;15345;59.364;18.016;2024-02-28T05:53:05;4.75;;;4.45;;
28028;SDS011;15345;59.364;18.016;2024-02-28T05:54:24;5.22;;;4.72;;
28028;SDS011;15345;59.364;18.016;2024-02-28T05:55:44;5.10;;;4.70;;
28028;SDS011;15345;59.364;18.016;2024-02-28T05:57:03;5.70;;;4.53;;
28028;SDS011;15345;59.364;18.016;2024-02-28T05:58:22;10.52;;;4.47;;
28028;SDS011;15345;59.364;18.016;2024-02-28T05:59:42;5.13;;;4.72;;
28028;SDS011;15345;59.364;18.016;2024-02-28T06:01:01;5.75;;;4.60;;
28028;SDS011;15345;59.364;18.016;2024-02-28T06:02:20;8.80;;;5.00;;
28028;SDS011;15345;59.364;18.016;2024-02-28T06:03:39;4.70;;;4.30;;
28028;SDS011;15345;59.364;18.016;2024-02-28T06:04:57;4.10;;;3.80;;
28028;SDS011;15345;59.364;18.016;2024-02-28T06:06:16;5.18;;;4.47;;
28028;SDS011;15345;59.364;18.016;2024-02-28T06:07:35;4.72;;;4.32;;
28028;SDS011;15345;59.364;18.016;2024-02-28T06:08:54;4.75;;;4.25;;
28028;SDS011;15345;59.364;18.016;2024-02-28T06:10:14;6.90;;;4.43;;
28028;SDS011;15345;59.364;18.016;2024-02-28T06:11:34;4.35;;;3.95;;
28028;SDS011;15345;59.364;18.016;2024-02-28T06:12:53;4.47;;;4.07;;
28028;SDS011;15345;59.364;18.016;2024-02-28T06:14:11;4.25;;;3.92;;
28028;SDS011;15345;59.364;18.016;2024-02-28T06:15:30;4.88;;;4.45;;
28028;SDS011;15345;59.364;18.016;2024-02-28T06:16:49;5.38;;;4.97;;
28028;SDS011;15345;59.364;18.016;2024-02-28T06:18:08;5.47;;;4.53;;
28028;SDS011;15345;59.364;18.016;2024-02-28T06:19:28;8.40;;;4.68;;
28028;SDS011;15345;59.364;18.016;2024-02-28T06:20:47;7.18;;;4.18;;
28028;SDS011;15345;59.364;18.016;2024-02-28T06:22:06;4.95;;;4.55;;
28028;SDS011;15345;59.364;18.016;2024-02-28T06:23:25;4.65;;;4.22;;
28028;SDS011;15345;59.364;18.016;2024-02-28T06:24:45;4.97;;;4.40;;
28028;SDS011;15345;59.364;18.016;2024-02-28T06:26:04;7.47;;;4.65;;
28028;SDS011;15345;59.364;18.016;2024-02-28T06:27:23;7.82;;;6.32;;
28028;SDS011;15345;59.364;18.016;2024-02-28T06:28:42;6.25;;;4.95;;
28028;SDS011;15345;59.364;18.016;2024-02-28T06:30:02;5.75;;;5.20;;
28028;SDS011;15345;59.364;18.016;2024-02-28T06:31:21;5.70;;;4.90;;
28028;SDS011;15345;59.364;18.016;2024-02-28T06:32:40;5.47;;;4.97;;
28028;SDS011;15345;59.364;18.016;2024-02-28T06:33:59;4.57;;;4.18;;
28028;SDS011;15345;59.364;18.016;2024-02-28T06:35:18;5.35;;;4.05;;
28028;SDS011;15345;59.364;18.016;2024-02-28T06:36:37;4.97;;;4.20;;
28028;SDS011;15345;59.364;18.016;2024-02-28T06:37:56;4.82;;;4.32;;
28028;SDS011;15345;59.364;18.016;2024-02-28T06:39:16;4.85;;;4.40;;
28028;SDS011;15345;59.364;18.016;2024-02-28T06:40:35;5.38;;;4.80;;
28028;SDS011;15345;59.364;18.016;2024-02-28T06:41:54;4.80;;;4.45;;
28028;SDS011;15345;59.364;18.016;2024-02-28T06:43:13;4.60;;;4.20;;
28028;SDS011;15345;59.364;18.016;2024-02-28T06:44:31;6.25;;;4.30;;
28028;SDS011;15345;59.364;18.016;2024-02-28T06:45:50;4.88;;;4.45;;
28028;SDS011;15345;59.364;18.016;2024-02-28T06:47:09;4.72;;;3.90;;
28028;SDS011;15345;59.364;18.016;2024-02-28T06:48:28;5.22;;;4.50;;
28028;SDS011;15345;59.364;18.016;2024-02-28T06:49:47;5.25;;;4.28;;
28028;SDS011;15345;59.364;18.016;2024-02-28T06:51:07;5.97;;;3.85;;
28028;SDS011;15345;59.364;18.016;2024-02-28T06:52:26;8.82;;;4.22;;
28028;SDS011;15345;59.364;18.016;2024-02-28T06:53:45;5.72;;;4.43;;
28028;SDS011;15345;59.364;18.016;2024-02-28T06:55:05;4.57;;;4.18;;
28028;SDS011;15345;59.364;18.016;2024-02-28T06:56:29;9.38;;;4.75;;
28028;SDS011;15345;59.364;18.016;2024-02-28T06:57:49;5.60;;;4.22;;
28028;SDS011;15345;59.364;18.016;2024-02-28T06:59:07;5.20;;;4.03;;
28028;SDS011;15345;59.364;18.016;2024-02-28T07:00:26;10.15;;;4.35;;
28028;SDS011;15345;59.364;18.016;2024-02-28T07:01:45;6.00;;;3.88;;
28028;SDS011;15345;59.364;18.016;2024-02-28T07:03:04;4.38;;;3.85;;
28028;SDS011;15345;59.364;18.016;2024-02-28T07:04:23;5.18;;;3.58;;
28028;SDS011;15345;59.364;18.016;2024-02-28T07:05:42;12.25;;;4.55;;
28028;SDS011;15345;59.364;18.016;2024-02-28T07:07:01;8.18;;;4.90;;
28028;SDS011;15345;59.364;18.016;2024-02-28T07:08:20;3.85;;;3.63;;
28028;SDS011;15345;59.364;18.016;2024-02-28T07:09:39;4.50;;;4.10;;
28028;SDS011;15345;59.364;18.016;2024-02-28T07:10:59;5.32;;;4.13;;
28028;SDS011;15345;59.364;18.016;2024-02-28T07:12:18;6.05;;;3.78;;
28028;SDS011;15345;59.364;18.016;2024-02-28T07:13:37;4.40;;;3.92;;
28028;SDS011;15345;59.364;18.016;2024-02-28T07:14:57;5.57;;;3.70;;
28028;SDS011;15345;59.364;18.016;2024-02-28T07:16:16;4.07;;;3.78;;
28028;SDS011;15345;59.364;18.016;2024-02-28T07:17:35;6.38;;;3.85;;
28028;SDS011;15345;59.364;18.016;2024-02-28T07:18:53;6.57;;;4.05;;
28028;SDS011;15345;59.364;18.016;2024-02-28T07:20:12;4.07;;;3.67;;
28028;SDS011;15345;59.364;18.016;2024-02-28T07:21:31;6.15;;;3.88;;
28028;SDS011;15345;59.364;18.016;2024-02-28T07:22:50;6.20;;;3.97;;
28028;SDS011;15345;59.364;18.016;2024-02-28T07:24:09;4.13;;;3.67;;
28028;SDS011;15345;59.364;18.016;2024-02-28T07:25:28;4.00;;;3.70;;
28028;SDS011;15345;59.364;18.016;2024-02-28T07:26:48;3.92;;;3.63;;
28028;SDS011;15345;59.364;18.016;2024-02-28T07:28:07;6.15;;;3.65;;
28028;SDS011;15345;59.364;18.016;2024-02-28T07:29:27;6.15;;;3.78;;
28028;SDS011;15345;59.364;18.016;2024-02-28T07:30:46;3.72;;;3.42;;
28028;SDS011;15345;59.364;18.016;2024-02-28T07:32:06;7.70;;;3.78;;
28028;SDS011;15345;59.364;18.016;2024-02-28T07:33:26;8.43;;;3.78;;
28028;SDS011;15345;59.364;18.016;2024-02-28T07:34:44;4.57;;;4.18;;
28028;SDS011;15345;59.364;18.016;2024-02-28T07:36:03;6.65;;;3.20;;
28028;SDS011;15345;59.364;18.016;2024-02-28T07:37:22;4.80;;;3.50;;
28028;SDS011;15345;59.364;18.016;2024-02-28T07:38:41;4.32;;;3.25;;
28028;SDS011;15345;59.364;18.016;2024-02-28T07:40:00;5.25;;;3.63;;
28028;SDS011;15345;59.364;18.016;2024-02-28T07:41:19;4.57;;;3.70;;
28028;SDS011;15345;59.364;18.016;2024-02-28T07:42:38;5.60;;;3.70;;
28028;SDS011;15345;59.364;18.016;2024-02-28T07:43:57;4.88;;;3.70;;
28028;SDS011;15345;59.364;18.016;2024-02-28T07:45:17;5.13;;;3.20;;
28028;SDS011;15345;59.364;18.016;2024-02-28T07:46:37;6.70;;;4.05;;
28028;SDS011;15345;59.364;18.016;2024-02-28T07:47:56;6.15;;;3.92;;
28028;SDS011;15345;59.364;18.016;2024-02-28T07:49:15;3.78;;;3.35;;